createdAt,value
2017-11-28T00:00:44.838Z,996.78
2017-11-28T00:01:44.816Z,996.78
2017-11-28T00:02:44.796Z,996.76
2017-11-28T00:03:44.774Z,996.8
2017-11-28T00:04:44.754Z,996.63
2017-11-28T00:05:44.732Z,996.76
2017-11-28T00:06:44.710Z,996.73
2017-11-28T00:07:44.692Z,996.67
2017-11-28T00:08:44.670Z,996.68
2017-11-28T00:09:44.652Z,996.68
2017-11-28T00:10:44.632Z,996.66
2017-11-28T00:11:44.609Z,996.65
2017-11-28T00:12:44.588Z,996.67
2017-11-28T00:13:44.564Z,996.66
2017-11-28T00:14:44.749Z,996.67
2017-11-28T00:15:44.525Z,996.7
2017-11-28T00:16:44.503Z,996.66
2017-11-28T00:17:44.485Z,996.6
2017-11-28T00:18:44.464Z,996.61
2017-11-28T00:19:44.442Z,996.61
2017-11-28T00:20:44.421Z,996.57
2017-11-28T00:21:44.399Z,996.55
2017-11-28T00:22:44.413Z,996.54
2017-11-28T00:23:44.356Z,996.57
2017-11-28T00:24:44.336Z,996.51
2017-11-28T00:25:44.314Z,996.54
2017-11-28T00:26:44.294Z,996.55
2017-11-28T00:27:44.277Z,996.58
2017-11-28T00:28:44.253Z,996.52
2017-11-28T00:29:44.232Z,996.57
2017-11-28T00:30:44.212Z,996.6
2017-11-28T00:31:44.191Z,996.59
2017-11-28T00:32:44.170Z,996.61
2017-11-28T00:33:44.149Z,996.59
2017-11-28T00:34:44.128Z,996.57
2017-11-28T00:35:44.107Z,996.58
2017-11-28T00:36:44.085Z,996.55
2017-11-28T00:37:44.065Z,996.57
2017-11-28T00:38:44.051Z,996.61
2017-11-28T00:39:44.025Z,996.63
2017-11-28T00:40:44.001Z,996.68
2017-11-28T00:41:43.997Z,996.7
2017-11-28T00:42:43.961Z,996.72
2017-11-28T00:43:43.940Z,996.75
2017-11-28T00:44:43.919Z,996.73
2017-11-28T00:45:43.900Z,996.66
2017-11-28T00:46:43.877Z,996.69
2017-11-28T00:47:43.856Z,996.74
2017-11-28T00:48:43.835Z,996.77
2017-11-28T00:49:43.813Z,996.75
2017-11-28T00:50:43.794Z,996.83
2017-11-28T00:51:43.777Z,996.75
2017-11-28T00:52:43.785Z,996.66
2017-11-28T00:53:43.731Z,996.68
2017-11-28T00:54:43.710Z,996.72
2017-11-28T00:55:43.692Z,996.69
2017-11-28T00:56:43.670Z,996.76
2017-11-28T00:57:43.684Z,996.65
2017-11-28T00:58:43.627Z,996.67
2017-11-28T00:59:43.606Z,996.65
2017-11-28T01:00:43.588Z,996.61
2017-11-28T01:01:43.563Z,996.63
2017-11-28T01:02:43.543Z,996.71
2017-11-28T01:03:43.549Z,996.66
2017-11-28T01:04:43.503Z,996.7
2017-11-28T01:05:43.480Z,996.65
2017-11-28T01:06:43.460Z,996.66
2017-11-28T01:07:43.439Z,996.66
2017-11-28T01:08:43.419Z,996.64
2017-11-28T01:09:43.404Z,996.64
2017-11-28T01:10:43.380Z,996.66
2017-11-28T01:11:43.356Z,996.69
2017-11-28T01:12:43.337Z,996.66
2017-11-28T01:13:43.313Z,996.69
2017-11-28T01:14:43.293Z,996.69
2017-11-28T01:15:43.274Z,996.69
2017-11-28T01:16:43.251Z,996.64
2017-11-28T01:17:43.232Z,996.68
2017-11-28T01:18:43.212Z,996.64
2017-11-28T01:19:43.187Z,996.68
2017-11-28T01:20:43.166Z,996.66
2017-11-28T01:21:43.147Z,996.59
2017-11-28T01:22:43.126Z,996.58
2017-11-28T01:23:43.108Z,996.6
2017-11-28T01:24:43.089Z,996.56
2017-11-28T01:25:43.065Z,996.56
2017-11-28T01:26:43.043Z,996.57
2017-11-28T01:27:43.021Z,996.54
2017-11-28T01:28:43.001Z,996.57
2017-11-28T01:29:42.982Z,996.53
2017-11-28T01:30:42.960Z,996.48
2017-11-28T01:31:42.937Z,996.45
2017-11-28T01:32:42.918Z,996.47
2017-11-28T01:33:42.895Z,996.41
2017-11-28T01:34:42.882Z,996.41
2017-11-28T01:35:42.855Z,996.42
2017-11-28T01:36:42.833Z,996.44
2017-11-28T01:37:42.812Z,996.43
2017-11-28T01:38:42.791Z,996.41
2017-11-28T01:39:42.775Z,996.43
2017-11-28T01:40:42.752Z,996.45
2017-11-28T01:41:42.728Z,996.44
2017-11-28T01:42:42.708Z,996.48
2017-11-28T01:43:42.689Z,996.48
2017-11-28T01:44:42.666Z,996.44
2017-11-28T01:45:42.644Z,996.45
2017-11-28T01:46:42.623Z,996.43
2017-11-28T01:47:42.603Z,996.41
2017-11-28T01:48:42.580Z,996.42
2017-11-28T01:49:42.560Z,996.41
2017-11-28T01:50:42.538Z,996.44
2017-11-28T01:51:42.519Z,996.46
2017-11-28T01:52:42.498Z,996.46
2017-11-28T01:53:42.477Z,996.43
2017-11-28T01:54:42.454Z,996.41
2017-11-28T01:55:42.436Z,996.4
2017-11-28T01:56:42.415Z,996.4
2017-11-28T01:57:42.393Z,996.41
2017-11-28T01:58:42.379Z,996.35
2017-11-28T01:59:42.350Z,996.36
2017-11-28T02:00:42.329Z,996.36
2017-11-28T02:01:42.309Z,996.37
2017-11-28T02:02:42.289Z,996.36
2017-11-28T02:03:42.268Z,996.34
2017-11-28T02:04:42.248Z,996.35
2017-11-28T02:05:42.225Z,996.36
2017-11-28T02:06:42.207Z,996.34
2017-11-28T02:07:42.189Z,996.31
2017-11-28T02:08:42.162Z,996.31
2017-11-28T02:09:42.140Z,996.28
2017-11-28T02:10:42.119Z,996.31
2017-11-28T02:11:42.097Z,996.26
2017-11-28T02:12:42.077Z,996.25
2017-11-28T02:13:42.056Z,996.25
2017-11-28T02:14:42.238Z,996.25
2017-11-28T02:15:42.013Z,996.28
2017-11-28T02:16:41.991Z,996.27
2017-11-28T02:17:41.973Z,996.29
2017-11-28T02:18:41.950Z,996.24
2017-11-28T02:19:41.927Z,996.18
2017-11-28T02:20:41.909Z,996.16
2017-11-28T02:21:41.888Z,996.18
2017-11-28T02:22:41.876Z,996.16
2017-11-28T02:23:41.847Z,996.19
2017-11-28T02:24:41.826Z,996.24
2017-11-28T02:25:41.801Z,996.21
2017-11-28T02:26:41.782Z,996.15
2017-11-28T02:27:41.760Z,996.18
2017-11-28T02:28:41.741Z,996.11
2017-11-28T02:29:41.731Z,996.14
2017-11-28T02:30:41.704Z,996.08
2017-11-28T02:31:41.681Z,996.11
2017-11-28T02:32:41.655Z,996.11
2017-11-28T02:33:41.636Z,996.12
2017-11-28T02:34:41.614Z,996.09
2017-11-28T02:35:41.593Z,996.19
2017-11-28T02:36:41.573Z,996.16
2017-11-28T02:37:41.555Z,996.12
2017-11-28T02:38:41.538Z,996.16
2017-11-28T02:39:41.536Z,996.13
2017-11-28T02:40:41.488Z,996.12
2017-11-28T02:41:41.469Z,996.11
2017-11-28T02:42:41.452Z,996.15
2017-11-28T02:43:41.428Z,996.07
2017-11-28T02:44:41.403Z,996.15
2017-11-28T02:45:41.382Z,996.18
2017-11-28T02:46:41.361Z,996.12
2017-11-28T02:47:41.366Z,996.14
2017-11-28T02:48:41.322Z,996.09
2017-11-28T02:49:41.310Z,996.12
2017-11-28T02:50:41.279Z,996.15
2017-11-28T02:51:41.271Z,996.13
2017-11-28T02:52:41.237Z,996.12
2017-11-28T02:53:41.223Z,996.08
2017-11-28T02:54:41.196Z,996.11
2017-11-28T02:55:41.173Z,996.05
2017-11-28T02:56:41.151Z,996
2017-11-28T02:57:41.131Z,995.9
2017-11-28T02:58:41.116Z,995.93
2017-11-28T02:59:41.090Z,995.92
2017-11-28T03:00:41.067Z,995.87
2017-11-28T03:01:41.046Z,995.93
2017-11-28T03:02:41.043Z,995.89
2017-11-28T03:03:41.005Z,995.88
2017-11-28T03:04:40.984Z,995.84
2017-11-28T03:05:40.970Z,995.84
2017-11-28T03:06:40.943Z,995.83
2017-11-28T03:07:40.921Z,995.8
2017-11-28T03:08:40.908Z,995.77
2017-11-28T03:09:40.878Z,995.73
2017-11-28T03:10:40.864Z,995.76
2017-11-28T03:11:40.838Z,995.69
2017-11-28T03:12:40.817Z,995.7
2017-11-28T03:13:40.796Z,995.72
2017-11-28T03:14:40.776Z,995.76
2017-11-28T03:15:40.759Z,995.77
2017-11-28T03:16:40.732Z,995.77
2017-11-28T03:17:40.710Z,995.73
2017-11-28T03:18:40.690Z,995.71
2017-11-28T03:19:40.670Z,995.74
2017-11-28T03:20:40.651Z,995.73
2017-11-28T03:21:40.628Z,995.74
2017-11-28T03:22:40.607Z,995.76
2017-11-28T03:23:40.585Z,995.74
2017-11-28T03:24:40.565Z,995.74
2017-11-28T03:25:40.545Z,995.69
2017-11-28T03:26:40.527Z,995.69
2017-11-28T03:27:40.503Z,995.76
2017-11-28T03:28:40.483Z,995.7
2017-11-28T03:29:40.461Z,995.71
2017-11-28T03:30:40.445Z,995.74
2017-11-28T03:31:40.418Z,995.83
2017-11-28T03:32:40.403Z,995.82
2017-11-28T03:33:40.376Z,995.82
2017-11-28T03:34:40.353Z,995.83
2017-11-28T03:35:40.335Z,995.86
2017-11-28T03:36:40.312Z,995.86
2017-11-28T03:37:40.293Z,995.85
2017-11-28T03:38:40.277Z,995.89
2017-11-28T03:39:40.249Z,995.91
2017-11-28T03:40:40.230Z,995.89
2017-11-28T03:41:40.207Z,995.85
2017-11-28T03:42:40.189Z,995.85
2017-11-28T03:43:40.166Z,995.82
2017-11-28T03:44:40.147Z,995.85
2017-11-28T03:45:40.123Z,995.75
2017-11-28T03:46:40.104Z,995.75
2017-11-28T03:47:40.081Z,995.79
2017-11-28T03:48:40.061Z,995.77
2017-11-28T03:49:40.038Z,995.75
2017-11-28T03:50:40.017Z,995.74
2017-11-28T03:51:39.998Z,995.73
2017-11-28T03:52:39.975Z,995.71
2017-11-28T03:53:39.955Z,995.68
2017-11-28T03:54:39.935Z,995.63
2017-11-28T03:55:39.913Z,995.64
2017-11-28T03:56:39.892Z,995.64
2017-11-28T03:57:39.870Z,995.65
2017-11-28T03:58:39.853Z,995.68
2017-11-28T03:59:39.828Z,995.7
2017-11-28T04:00:39.807Z,995.7
2017-11-28T04:01:39.787Z,995.66
2017-11-28T04:02:39.767Z,995.67
2017-11-28T04:03:39.745Z,995.72
2017-11-28T04:04:39.722Z,995.74
2017-11-28T04:05:39.703Z,995.69
2017-11-28T04:06:39.682Z,995.68
2017-11-28T04:07:39.661Z,995.69
2017-11-28T04:08:39.642Z,995.68
2017-11-28T04:09:39.620Z,995.69
2017-11-28T04:10:39.597Z,995.67
2017-11-28T04:11:39.576Z,995.68
2017-11-28T04:12:39.556Z,995.72
2017-11-28T04:13:39.536Z,995.71
2017-11-28T04:14:39.716Z,995.7
2017-11-28T04:15:39.493Z,995.69
2017-11-28T04:16:39.501Z,995.67
2017-11-28T04:17:39.451Z,995.67
2017-11-28T04:18:39.428Z,995.69
2017-11-28T04:19:39.412Z,995.7
2017-11-28T04:20:39.394Z,995.68
2017-11-28T04:21:39.373Z,995.65
2017-11-28T04:22:39.345Z,995.65
2017-11-28T04:23:39.325Z,995.6
2017-11-28T04:24:39.304Z,995.61
2017-11-28T04:25:39.282Z,995.6
2017-11-28T04:26:39.260Z,995.59
2017-11-28T04:27:39.241Z,995.62
2017-11-28T04:28:39.220Z,995.61
2017-11-28T04:29:39.196Z,995.63
2017-11-28T04:30:39.177Z,995.66
2017-11-28T04:31:39.159Z,995.62
2017-11-28T04:32:39.138Z,995.65
2017-11-28T04:33:39.148Z,995.71
2017-11-28T04:34:39.099Z,995.69
2017-11-28T04:35:39.074Z,995.71
2017-11-28T04:36:39.050Z,995.76
2017-11-28T04:37:39.030Z,995.72
2017-11-28T04:38:39.010Z,995.78
2017-11-28T04:39:38.988Z,995.77
2017-11-28T04:40:38.966Z,995.77
2017-11-28T04:41:38.946Z,995.74
2017-11-28T04:42:38.928Z,995.72
2017-11-28T04:43:38.905Z,995.75
2017-11-28T04:44:38.883Z,995.75
2017-11-28T04:45:38.862Z,995.78
2017-11-28T04:46:38.840Z,995.75
2017-11-28T04:47:38.827Z,995.72
2017-11-28T04:48:38.801Z,995.77
2017-11-28T04:49:38.778Z,995.75
2017-11-28T04:50:38.758Z,995.75
2017-11-28T04:51:38.738Z,995.74
2017-11-28T04:52:38.714Z,995.7
2017-11-28T04:53:38.693Z,995.71
2017-11-28T04:54:38.674Z,995.7
2017-11-28T04:55:38.652Z,995.71
2017-11-28T04:56:38.634Z,995.68
2017-11-28T04:57:38.611Z,995.65
2017-11-28T04:58:38.588Z,995.64
2017-11-28T04:59:38.568Z,995.64
2017-11-28T05:00:38.549Z,995.62
2017-11-28T05:01:38.531Z,995.62
2017-11-28T05:02:38.510Z,995.68
2017-11-28T05:03:38.485Z,995.66
2017-11-28T05:04:38.464Z,995.65
2017-11-28T05:05:38.445Z,995.59
2017-11-28T05:06:38.423Z,995.57
2017-11-28T05:07:38.404Z,995.57
2017-11-28T05:08:38.381Z,995.55
2017-11-28T05:09:38.372Z,995.58
2017-11-28T05:10:38.338Z,995.58
2017-11-28T05:11:38.318Z,995.59
2017-11-28T05:12:38.297Z,995.64
2017-11-28T05:13:38.280Z,995.73
2017-11-28T05:14:38.255Z,995.67
2017-11-28T05:15:38.236Z,995.7
2017-11-28T05:16:38.215Z,995.73
2017-11-28T05:17:38.193Z,995.71
2017-11-28T05:18:38.174Z,995.7
2017-11-28T05:19:38.153Z,995.8
2017-11-28T05:20:38.132Z,995.77
2017-11-28T05:21:38.112Z,995.73
2017-11-28T05:22:38.089Z,995.75
2017-11-28T05:23:38.072Z,995.76
2017-11-28T05:24:38.048Z,995.74
2017-11-28T05:25:38.029Z,995.7
2017-11-28T05:26:38.012Z,995.68
2017-11-28T05:27:37.986Z,995.66
2017-11-28T05:28:37.964Z,995.69
2017-11-28T05:29:37.953Z,995.67
2017-11-28T05:30:37.922Z,995.7
2017-11-28T05:31:37.909Z,995.71
2017-11-28T05:32:37.883Z,995.66
2017-11-28T05:33:37.861Z,995.69
2017-11-28T05:34:37.842Z,995.72
2017-11-28T05:35:37.821Z,995.77
2017-11-28T05:36:37.808Z,995.75
2017-11-28T05:37:37.781Z,995.74
2017-11-28T05:38:37.775Z,995.81
2017-11-28T05:39:37.745Z,995.79
2017-11-28T05:40:37.727Z,995.81
2017-11-28T05:41:37.696Z,995.81
2017-11-28T05:42:37.677Z,995.84
2017-11-28T05:43:37.665Z,995.81
2017-11-28T05:44:37.635Z,995.86
2017-11-28T05:45:37.613Z,995.82
2017-11-28T05:46:37.593Z,995.79
2017-11-28T05:47:37.572Z,995.84
2017-11-28T05:48:37.552Z,995.76
2017-11-28T05:49:37.531Z,995.74
2017-11-28T05:50:37.510Z,995.79
2017-11-28T05:51:37.488Z,995.76
2017-11-28T05:52:37.484Z,995.75
2017-11-28T05:53:37.448Z,995.69
2017-11-28T05:54:37.429Z,995.76
2017-11-28T05:55:37.410Z,995.73
2017-11-28T05:56:37.385Z,995.73
2017-11-28T05:57:37.363Z,995.68
2017-11-28T05:58:37.345Z,995.72
2017-11-28T05:59:37.321Z,995.75
2017-11-28T06:00:37.302Z,995.72
2017-11-28T06:01:37.283Z,995.78
2017-11-28T06:02:37.260Z,995.79
2017-11-28T06:03:37.241Z,995.74
2017-11-28T06:04:37.221Z,995.71
2017-11-28T06:05:37.208Z,995.68
2017-11-28T06:06:37.178Z,995.69
2017-11-28T06:07:37.154Z,995.69
2017-11-28T06:08:37.134Z,995.72
2017-11-28T06:09:37.112Z,995.74
2017-11-28T06:10:37.091Z,995.75
2017-11-28T06:11:37.072Z,995.71
2017-11-28T06:12:37.050Z,995.69
2017-11-28T06:13:37.031Z,995.72
2017-11-28T06:14:37.215Z,995.76
2017-11-28T06:15:36.987Z,995.71
2017-11-28T06:16:36.965Z,995.73
2017-11-28T06:17:36.944Z,995.75
2017-11-28T06:18:36.923Z,995.74
2017-11-28T06:19:36.903Z,995.72
2017-11-28T06:20:36.882Z,995.75
2017-11-28T06:21:36.863Z,995.78
2017-11-28T06:22:36.843Z,995.87
2017-11-28T06:23:36.819Z,995.86
2017-11-28T06:24:36.797Z,995.87
2017-11-28T06:25:36.781Z,995.85
2017-11-28T06:26:36.758Z,995.85
2017-11-28T06:27:36.736Z,995.85
2017-11-28T06:28:36.711Z,995.84
2017-11-28T06:29:36.690Z,995.82
2017-11-28T06:30:36.670Z,995.81
2017-11-28T06:31:36.648Z,995.85
2017-11-28T06:32:36.627Z,995.86
2017-11-28T06:33:36.606Z,995.89
2017-11-28T06:34:36.586Z,995.88
2017-11-28T06:35:36.562Z,995.92
2017-11-28T06:36:36.547Z,995.94
2017-11-28T06:37:36.524Z,995.98
2017-11-28T06:38:36.500Z,995.88
2017-11-28T06:39:36.482Z,995.91
2017-11-28T06:40:36.458Z,995.88
2017-11-28T06:41:36.435Z,995.86
2017-11-28T06:42:36.415Z,995.88
2017-11-28T06:43:36.397Z,995.91
2017-11-28T06:44:36.371Z,995.92
2017-11-28T06:45:36.352Z,995.95
2017-11-28T06:46:36.331Z,995.97
2017-11-28T06:47:36.310Z,995.98
2017-11-28T06:48:36.285Z,996.03
2017-11-28T06:49:36.266Z,996.04
2017-11-28T06:50:36.242Z,996.1
2017-11-28T06:51:36.224Z,996.09
2017-11-28T06:52:36.200Z,996.11
2017-11-28T06:53:36.181Z,996.14
2017-11-28T06:54:36.171Z,996.12
2017-11-28T06:55:36.141Z,996.12
2017-11-28T06:56:36.115Z,996.19
2017-11-28T06:57:36.098Z,996.17
2017-11-28T06:58:36.074Z,996.16
2017-11-28T06:59:36.053Z,996.16
2017-11-28T07:00:36.030Z,996.23
2017-11-28T07:01:36.009Z,996.17
2017-11-28T07:02:35.989Z,996.19
2017-11-28T07:03:35.967Z,996.21
2017-11-28T07:04:35.946Z,996.21
2017-11-28T07:05:35.931Z,996.23
2017-11-28T07:06:35.905Z,996.17
2017-11-28T07:07:35.897Z,996.16
2017-11-28T07:08:35.862Z,996.12
2017-11-28T07:09:35.841Z,996.12
2017-11-28T07:10:35.819Z,996.13
2017-11-28T07:11:35.800Z,996.13
2017-11-28T07:12:35.780Z,996.19
2017-11-28T07:13:35.756Z,996.2
2017-11-28T07:14:35.743Z,996.2
2017-11-28T07:15:35.717Z,996.15
2017-11-28T07:16:35.701Z,996.22
2017-11-28T07:17:35.672Z,996.29
2017-11-28T07:18:35.651Z,996.25
2017-11-28T07:19:35.632Z,996.2
2017-11-28T07:20:35.610Z,996.16
2017-11-28T07:21:35.588Z,996.24
2017-11-28T07:22:35.566Z,996.24
2017-11-28T07:23:35.546Z,996.19
2017-11-28T07:24:35.526Z,996.2
2017-11-28T07:25:35.504Z,996.25
2017-11-28T07:26:35.485Z,996.24
2017-11-28T07:27:35.463Z,996.25
2017-11-28T07:28:35.441Z,996.21
2017-11-28T07:29:35.423Z,996.31
2017-11-28T07:30:35.399Z,996.27
2017-11-28T07:31:35.379Z,996.27
2017-11-28T07:32:35.357Z,996.26
2017-11-28T07:33:35.336Z,996.26
2017-11-28T07:34:35.315Z,996.34
2017-11-28T07:35:35.292Z,996.31
2017-11-28T07:36:35.276Z,996.3
2017-11-28T07:37:35.251Z,996.32
2017-11-28T07:38:35.234Z,996.35
2017-11-28T07:39:35.213Z,996.35
2017-11-28T07:40:35.192Z,996.34
2017-11-28T07:41:35.170Z,996.3
2017-11-28T07:42:35.150Z,996.31
2017-11-28T07:43:35.131Z,996.31
2017-11-28T07:44:35.110Z,996.39
2017-11-28T07:45:35.090Z,996.34
2017-11-28T07:46:35.063Z,996.35
2017-11-28T07:47:35.047Z,996.34
2017-11-28T07:48:35.021Z,996.34
2017-11-28T07:49:35.001Z,996.36
2017-11-28T07:50:34.978Z,996.41
2017-11-28T07:51:34.982Z,996.39
2017-11-28T07:52:34.937Z,996.44
2017-11-28T07:53:34.916Z,996.41
2017-11-28T07:54:34.903Z,996.43
2017-11-28T07:55:34.873Z,996.42
2017-11-28T07:56:34.857Z,996.42
2017-11-28T07:57:34.841Z,996.4
2017-11-28T07:58:34.813Z,996.43
2017-11-28T07:59:34.790Z,996.51
2017-11-28T08:00:34.769Z,996.48
2017-11-28T08:01:34.747Z,996.53
2017-11-28T08:02:34.727Z,996.51
2017-11-28T08:03:34.718Z,996.49
2017-11-28T08:04:34.685Z,996.55
2017-11-28T08:05:34.690Z,996.51
2017-11-28T08:06:34.643Z,996.45
2017-11-28T08:07:34.665Z,996.46
2017-11-28T08:08:34.601Z,996.54
2017-11-28T08:09:34.582Z,996.56
2017-11-28T08:10:34.559Z,996.52
2017-11-28T08:11:34.549Z,996.53
2017-11-28T08:12:34.524Z,996.52
2017-11-28T08:13:34.498Z,996.56
2017-11-28T08:14:34.680Z,996.56
2017-11-28T08:15:34.464Z,996.62
2017-11-28T08:16:34.436Z,996.56
2017-11-28T08:17:34.426Z,996.52
2017-11-28T08:18:34.395Z,996.57
2017-11-28T08:19:34.373Z,996.57
2017-11-28T08:20:34.351Z,996.56
2017-11-28T08:21:34.332Z,996.55
2017-11-28T08:22:34.311Z,996.6
2017-11-28T08:23:34.293Z,996.59
2017-11-28T08:24:34.270Z,996.58
2017-11-28T08:25:34.252Z,996.52
2017-11-28T08:26:34.229Z,996.52
2017-11-28T08:27:34.206Z,996.51
2017-11-28T08:28:34.190Z,996.54
2017-11-28T08:29:34.168Z,996.5
2017-11-28T08:30:34.148Z,996.53
2017-11-28T08:31:34.131Z,996.49
2017-11-28T08:32:34.107Z,996.48
2017-11-28T08:33:34.085Z,996.47
2017-11-28T08:34:34.062Z,996.51
2017-11-28T08:35:34.046Z,996.45
2017-11-28T08:36:34.021Z,996.45
2017-11-28T08:37:34.004Z,996.5
2017-11-28T08:38:33.997Z,996.45
2017-11-28T08:39:33.960Z,996.45
2017-11-28T08:40:33.939Z,996.46
2017-11-28T08:41:33.917Z,996.5
2017-11-28T08:42:33.897Z,996.47
2017-11-28T08:43:33.881Z,996.45
2017-11-28T08:44:33.857Z,996.56
2017-11-28T08:45:33.837Z,996.57
2017-11-28T08:46:33.817Z,996.56
2017-11-28T08:47:33.817Z,996.53
2017-11-28T08:48:33.774Z,996.51
2017-11-28T08:49:33.752Z,996.49
2017-11-28T08:50:33.733Z,996.49
2017-11-28T08:51:33.712Z,996.51
2017-11-28T08:52:33.693Z,996.51
2017-11-28T08:53:33.673Z,996.54
2017-11-28T08:54:33.650Z,996.43
2017-11-28T08:55:33.629Z,996.47
2017-11-28T08:56:33.607Z,996.47
2017-11-28T08:57:33.587Z,996.52
2017-11-28T08:58:33.567Z,996.5
2017-11-28T08:59:33.557Z,996.46
2017-11-28T09:00:33.526Z,996.47
2017-11-28T09:01:33.504Z,996.54
2017-11-28T09:02:33.485Z,996.51
2017-11-28T09:03:33.466Z,996.48
2017-11-28T09:04:33.445Z,996.48
2017-11-28T09:05:33.422Z,996.5
2017-11-28T09:06:33.403Z,996.46
2017-11-28T09:07:33.381Z,996.48
2017-11-28T09:08:33.361Z,996.5
2017-11-28T09:09:33.341Z,996.47
2017-11-28T09:10:33.319Z,996.5
2017-11-28T09:11:33.299Z,996.5
2017-11-28T09:12:33.281Z,996.53
2017-11-28T09:13:33.261Z,996.5
2017-11-28T09:14:33.242Z,996.53
2017-11-28T09:15:33.221Z,996.48
2017-11-28T09:16:33.199Z,996.56
2017-11-28T09:17:33.179Z,996.51
2017-11-28T09:18:33.158Z,996.53
2017-11-28T09:19:33.139Z,996.53
2017-11-28T09:20:33.116Z,996.65
2017-11-28T09:21:33.099Z,996.53
2017-11-28T09:22:33.077Z,996.58
2017-11-28T09:23:33.077Z,996.57
2017-11-28T09:24:33.039Z,996.56
2017-11-28T09:25:33.017Z,996.63
2017-11-28T09:26:32.996Z,996.68
2017-11-28T09:27:32.977Z,996.69
2017-11-28T09:28:32.957Z,996.68
2017-11-28T09:29:32.942Z,996.63
2017-11-28T09:30:32.917Z,996.69
2017-11-28T09:31:32.900Z,996.67
2017-11-28T09:32:32.877Z,996.66
2017-11-28T09:33:32.856Z,996.62
2017-11-28T09:34:32.838Z,996.65
2017-11-28T09:35:32.820Z,996.75
2017-11-28T09:36:32.799Z,996.65
2017-11-28T09:37:32.783Z,996.67
2017-11-28T09:38:32.763Z,996.69
2017-11-28T09:39:32.744Z,996.68
2017-11-28T09:40:32.724Z,996.7
2017-11-28T09:41:32.703Z,996.75
2017-11-28T09:42:32.684Z,996.67
2017-11-28T09:43:32.665Z,996.63
2017-11-28T09:44:32.645Z,996.65
2017-11-28T09:45:32.632Z,996.61
2017-11-28T09:46:32.611Z,996.63
2017-11-28T09:47:32.592Z,996.65
2017-11-28T09:48:32.578Z,996.64
2017-11-28T09:49:32.554Z,996.59
2017-11-28T09:50:32.539Z,996.59
2017-11-28T09:51:32.517Z,996.63
2017-11-28T09:52:32.496Z,996.64
2017-11-28T09:53:32.480Z,996.58
2017-11-28T09:54:32.468Z,996.57
2017-11-28T09:55:32.441Z,996.57
2017-11-28T09:56:32.430Z,996.59
2017-11-28T09:57:32.405Z,996.57
2017-11-28T09:58:32.385Z,996.62
2017-11-28T09:59:32.369Z,996.59
2017-11-28T10:00:32.354Z,996.56
2017-11-28T10:01:32.335Z,996.55
2017-11-28T10:02:32.315Z,996.71
2017-11-28T10:03:32.300Z,996.67
2017-11-28T10:04:32.282Z,996.63
2017-11-28T10:05:32.262Z,996.64
2017-11-28T10:06:32.248Z,996.68
2017-11-28T10:07:32.229Z,996.56
2017-11-28T10:08:32.211Z,996.62
2017-11-28T10:09:32.202Z,996.59
2017-11-28T10:10:32.179Z,996.58
2017-11-28T10:11:32.172Z,996.61
2017-11-28T10:12:32.145Z,996.56
2017-11-28T10:13:32.127Z,996.61
2017-11-28T10:14:32.112Z,996.63
2017-11-28T10:15:32.096Z,996.62
2017-11-28T10:16:32.078Z,996.57
2017-11-28T10:17:32.070Z,996.58
2017-11-28T10:18:32.045Z,996.59
2017-11-28T10:19:32.029Z,996.6
2017-11-28T10:20:32.011Z,996.67
2017-11-28T10:21:31.993Z,996.67
2017-11-28T10:22:31.980Z,996.72
2017-11-28T10:23:31.962Z,996.65
2017-11-28T10:24:31.946Z,996.69
2017-11-28T10:25:31.929Z,996.6
2017-11-28T10:26:31.909Z,996.61
2017-11-28T10:27:31.893Z,996.6
2017-11-28T10:28:31.875Z,996.66
2017-11-28T10:29:31.858Z,996.66
2017-11-28T10:30:31.841Z,996.61
2017-11-28T10:31:31.824Z,996.59
2017-11-28T10:32:31.805Z,996.56
2017-11-28T10:33:31.789Z,996.6
2017-11-28T10:34:31.780Z,996.6
2017-11-28T10:35:31.756Z,996.57
2017-11-28T10:36:31.737Z,996.61
2017-11-28T10:37:31.718Z,996.62
2017-11-28T10:38:31.703Z,996.56
2017-11-28T10:39:31.686Z,996.6
2017-11-28T10:40:31.666Z,996.6
2017-11-28T10:41:31.649Z,996.64
2017-11-28T10:42:31.633Z,996.6
2017-11-28T10:43:31.632Z,996.6
2017-11-28T10:44:31.604Z,996.54
2017-11-28T10:45:31.582Z,996.57
2017-11-28T10:46:31.571Z,996.61
2017-11-28T10:47:31.544Z,996.54
2017-11-28T10:48:31.528Z,996.57
2017-11-28T10:49:31.509Z,996.56
2017-11-28T10:50:31.493Z,996.52
2017-11-28T10:51:31.481Z,996.52
2017-11-28T10:52:31.465Z,996.47
2017-11-28T10:53:31.440Z,996.58
2017-11-28T10:54:31.428Z,996.54
2017-11-28T10:55:31.405Z,996.52
2017-11-28T10:56:31.390Z,996.46
2017-11-28T10:57:31.371Z,996.52
2017-11-28T10:58:31.359Z,996.55
2017-11-28T10:59:31.335Z,996.56
2017-11-28T11:00:31.318Z,996.49
2017-11-28T11:01:31.324Z,996.53
2017-11-28T11:02:31.281Z,996.53
2017-11-28T11:03:31.268Z,996.6
2017-11-28T11:04:31.245Z,996.5
2017-11-28T11:05:31.228Z,996.51
2017-11-28T11:06:31.211Z,996.47
2017-11-28T11:07:31.192Z,996.46
2017-11-28T11:08:31.176Z,996.46
2017-11-28T11:09:31.162Z,996.46
2017-11-28T11:10:31.142Z,996.43
2017-11-28T11:11:31.122Z,996.37
2017-11-28T11:12:31.104Z,996.46
2017-11-28T11:13:31.088Z,996.44
2017-11-28T11:14:31.073Z,996.42
2017-11-28T11:15:31.053Z,996.43
2017-11-28T11:16:31.035Z,996.37
2017-11-28T11:17:31.017Z,996.42
2017-11-28T11:18:30.998Z,996.38
2017-11-28T11:19:30.985Z,996.33
2017-11-28T11:20:30.963Z,996.32
2017-11-28T11:21:30.949Z,996.39
2017-11-28T11:22:30.932Z,996.41
2017-11-28T11:23:30.912Z,996.43
2017-11-28T11:24:30.893Z,996.41
2017-11-28T11:25:30.879Z,996.43
2017-11-28T11:26:30.858Z,996.39
2017-11-28T11:27:30.841Z,996.4
2017-11-28T11:28:30.823Z,996.36
2017-11-28T11:29:30.805Z,996.32
2017-11-28T11:30:30.786Z,996.32
2017-11-28T11:31:30.769Z,996.31
2017-11-28T11:32:30.751Z,996.34
2017-11-28T11:33:30.731Z,996.27
2017-11-28T11:34:30.714Z,996.3
2017-11-28T11:35:30.755Z,996.26
2017-11-28T11:36:30.677Z,996.31
2017-11-28T11:37:30.659Z,996.3
2017-11-28T11:38:30.643Z,996.32
2017-11-28T11:39:30.624Z,996.36
2017-11-28T11:40:30.604Z,996.3
2017-11-28T11:41:30.588Z,996.3
2017-11-28T11:42:30.570Z,996.21
2017-11-28T11:43:30.550Z,996.44
2017-11-28T11:44:30.533Z,996.28
2017-11-28T11:45:30.515Z,996.31
2017-11-28T11:46:30.495Z,996.32
2017-11-28T11:47:30.477Z,996.27
2017-11-28T11:48:30.459Z,996.29
2017-11-28T11:49:30.445Z,996.26
2017-11-28T11:50:30.421Z,996.26
2017-11-28T11:51:30.402Z,996.23
2017-11-28T11:52:30.387Z,996.26
2017-11-28T11:53:30.368Z,996.27
2017-11-28T11:54:30.349Z,996.25
2017-11-28T11:55:30.334Z,996.29
2017-11-28T11:56:30.311Z,996.27
2017-11-28T11:57:30.290Z,996.21
2017-11-28T11:58:30.273Z,996.23
2017-11-28T11:59:30.257Z,996.21
2017-11-28T12:00:30.235Z,996.2
2017-11-28T12:01:30.217Z,996.14
2017-11-28T12:02:30.206Z,996.17
2017-11-28T12:03:30.179Z,996.2
2017-11-28T12:04:30.160Z,996.18
2017-11-28T12:05:30.144Z,996.13
2017-11-28T12:06:30.123Z,996.09
2017-11-28T12:07:30.105Z,996.16
2017-11-28T12:08:30.085Z,996.2
2017-11-28T12:09:30.069Z,996.19
2017-11-28T12:10:30.048Z,996.18
2017-11-28T12:11:30.030Z,996.18
2017-11-28T12:12:30.010Z,996.24
2017-11-28T12:13:29.992Z,996.18
2017-11-28T12:14:29.972Z,996.21
2017-11-28T12:15:30.160Z,996.21
2017-11-28T12:16:29.935Z,996.16
2017-11-28T12:17:29.917Z,996.18
2017-11-28T12:18:29.900Z,996.19
2017-11-28T12:19:29.890Z,996.19
2017-11-28T12:20:29.861Z,996.22
2017-11-28T12:21:29.848Z,996.18
2017-11-28T12:22:29.826Z,996.12
2017-11-28T12:23:29.808Z,996.12
2017-11-28T12:24:29.787Z,996.12
2017-11-28T12:25:29.776Z,996.09
2017-11-28T12:26:29.751Z,996.1
2017-11-28T12:27:29.743Z,996.08
2017-11-28T12:28:29.712Z,996.06
2017-11-28T12:29:29.694Z,996.08
2017-11-28T12:30:29.678Z,996.11